sensor_id;sensor_type;location;lat;lon;timestamp;P1;durP1;ratioP1;P2;durP2;ratioP2
35126;SDS011;21300;52.006;5.798;2023-07-13T00:00:42;13.10;;;2.75;;
35126;SDS011;21300;52.006;5.798;2023-07-13T00:03:08;10.68;;;1.92;;
35126;SDS011;21300;52.006;5.798;2023-07-13T00:05:33;10.25;;;2.25;;
35126;SDS011;21300;52.006;5.798;2023-07-13T00:07:59;6.57;;;2.00;;
35126;SDS011;21300;52.006;5.798;2023-07-13T00:10:25;8.40;;;2.17;;
35126;SDS011;21300;52.006;5.798;2023-07-13T00:12:51;7.53;;;1.60;;
35126;SDS011;21300;52.006;5.798;2023-07-13T00:15:21;8.77;;;1.80;;
35126;SDS011;21300;52.006;5.798;2023-07-13T00:17:50;9.80;;;2.10;;
35126;SDS011;21300;52.006;5.798;2023-07-13T00:20:17;7.60;;;1.90;;
35126;SDS011;21300;52.006;5.798;2023-07-13T00:22:43;7.40;;;2.00;;
35126;SDS011;21300;52.006;5.798;2023-07-13T00:25:10;8.48;;;2.30;;
35126;SDS011;21300;52.006;5.798;2023-07-13T00:27:36;4.65;;;1.85;;
35126;SDS011;21300;52.006;5.798;2023-07-13T00:30:02;5.35;;;1.98;;
35126;SDS011;21300;52.006;5.798;2023-07-13T00:32:28;8.20;;;2.10;;
35126;SDS011;21300;52.006;5.798;2023-07-13T00:34:54;6.72;;;1.83;;
35126;SDS011;21300;52.006;5.798;2023-07-13T00:37:20;7.57;;;1.63;;
35126;SDS011;21300;52.006;5.798;2023-07-13T00:39:46;5.50;;;1.77;;
35126;SDS011;21300;52.006;5.798;2023-07-13T00:42:11;7.53;;;2.13;;
35126;SDS011;21300;52.006;5.798;2023-07-13T00:44:37;5.80;;;2.00;;
35126;SDS011;21300;52.006;5.798;2023-07-13T00:47:05;8.65;;;2.47;;
35126;SDS011;21300;52.006;5.798;2023-07-13T00:49:31;8.52;;;2.17;;
35126;SDS011;21300;52.006;5.798;2023-07-13T00:52:02;6.40;;;2.10;;
35126;SDS011;21300;52.006;5.798;2023-07-13T00:54:35;7.20;;;1.65;;
35126;SDS011;21300;52.006;5.798;2023-07-13T00:57:05;3.65;;;1.42;;
35126;SDS011;21300;52.006;5.798;2023-07-13T00:59:35;8.63;;;1.65;;
35126;SDS011;21300;52.006;5.798;2023-07-13T01:02:02;7.60;;;1.85;;
35126;SDS011;21300;52.006;5.798;2023-07-13T01:04:28;8.10;;;1.75;;
35126;SDS011;21300;52.006;5.798;2023-07-13T01:06:54;6.10;;;1.40;;
35126;SDS011;21300;52.006;5.798;2023-07-13T01:09:22;7.40;;;1.65;;
35126;SDS011;21300;52.006;5.798;2023-07-13T01:11:48;7.60;;;1.58;;
35126;SDS011;21300;52.006;5.798;2023-07-13T01:14:14;4.75;;;1.50;;
35126;SDS011;21300;52.006;5.798;2023-07-13T01:16:40;7.35;;;1.48;;
35126;SDS011;21300;52.006;5.798;2023-07-13T01:19:30;6.47;;;1.60;;
35126;SDS011;21300;52.006;5.798;2023-07-13T01:22:01;5.95;;;1.40;;
35126;SDS011;21300;52.006;5.798;2023-07-13T01:24:36;5.78;;;1.50;;
35126;SDS011;21300;52.006;5.798;2023-07-13T01:27:04;6.30;;;1.40;;
35126;SDS011;21300;52.006;5.798;2023-07-13T01:29:31;7.13;;;1.50;;
35126;SDS011;21300;52.006;5.798;2023-07-13T01:31:58;6.45;;;1.50;;
35126;SDS011;21300;52.006;5.798;2023-07-13T01:34:25;4.88;;;1.60;;
35126;SDS011;21300;52.006;5.798;2023-07-13T01:36:51;4.57;;;1.40;;
35126;SDS011;21300;52.006;5.798;2023-07-13T01:39:19;6.55;;;1.65;;
35126;SDS011;21300;52.006;5.798;2023-07-13T01:41:48;6.82;;;1.67;;
35126;SDS011;21300;52.006;5.798;2023-07-13T01:44:14;7.45;;;1.75;;
35126;SDS011;21300;52.006;5.798;2023-07-13T01:46:39;5.30;;;1.35;;
35126;SDS011;21300;52.006;5.798;2023-07-13T01:49:05;7.05;;;1.83;;
35126;SDS011;21300;52.006;5.798;2023-07-13T01:51:31;7.72;;;1.50;;
35126;SDS011;21300;52.006;5.798;2023-07-13T01:53:57;5.32;;;1.67;;
35126;SDS011;21300;52.006;5.798;2023-07-13T01:56:22;6.32;;;1.85;;
35126;SDS011;21300;52.006;5.798;2023-07-13T01:59:07;5.57;;;2.15;;
35126;SDS011;21300;52.006;5.798;2023-07-13T02:01:33;5.97;;;1.80;;
35126;SDS011;21300;52.006;5.798;2023-07-13T02:03:59;7.50;;;1.48;;
35126;SDS011;21300;52.006;5.798;2023-07-13T02:06:25;6.70;;;1.70;;
35126;SDS011;21300;52.006;5.798;2023-07-13T02:08:50;7.93;;;2.25;;
35126;SDS011;21300;52.006;5.798;2023-07-13T02:11:16;6.95;;;2.67;;
35126;SDS011;21300;52.006;5.798;2023-07-13T02:13:42;6.50;;;1.90;;
35126;SDS011;21300;52.006;5.798;2023-07-13T02:16:08;5.78;;;2.17;;
35126;SDS011;21300;52.006;5.798;2023-07-13T02:18:34;10.25;;;2.28;;
35126;SDS011;21300;52.006;5.798;2023-07-13T02:21:00;5.00;;;1.85;;
35126;SDS011;21300;52.006;5.798;2023-07-13T02:23:25;7.00;;;1.65;;
35126;SDS011;21300;52.006;5.798;2023-07-13T02:25:58;7.95;;;1.90;;
35126;SDS011;21300;52.006;5.798;2023-07-13T02:28:25;6.47;;;2.08;;
35126;SDS011;21300;52.006;5.798;2023-07-13T02:30:51;4.78;;;1.70;;
35126;SDS011;21300;52.006;5.798;2023-07-13T02:33:16;7.07;;;1.90;;
35126;SDS011;21300;52.006;5.798;2023-07-13T02:35:42;8.32;;;2.00;;
35126;SDS011;21300;52.006;5.798;2023-07-13T02:38:08;8.45;;;2.50;;
35126;SDS011;21300;52.006;5.798;2023-07-13T02:40:33;6.65;;;2.38;;
35126;SDS011;21300;52.006;5.798;2023-07-13T02:43:00;6.25;;;2.08;;
35126;SDS011;21300;52.006;5.798;2023-07-13T02:45:27;8.32;;;2.17;;
35126;SDS011;21300;52.006;5.798;2023-07-13T02:47:53;8.50;;;2.70;;
35126;SDS011;21300;52.006;5.798;2023-07-13T02:50:19;3.97;;;1.80;;
35126;SDS011;21300;52.006;5.798;2023-07-13T02:52:45;7.80;;;2.30;;
35126;SDS011;21300;52.006;5.798;2023-07-13T02:55:11;7.72;;;2.20;;
35126;SDS011;21300;52.006;5.798;2023-07-13T02:57:37;8.02;;;2.40;;
35126;SDS011;21300;52.006;5.798;2023-07-13T03:00:03;7.88;;;2.38;;
35126;SDS011;21300;52.006;5.798;2023-07-13T03:02:33;5.75;;;2.00;;
35126;SDS011;21300;52.006;5.798;2023-07-13T03:04:59;10.95;;;2.75;;
35126;SDS011;21300;52.006;5.798;2023-07-13T03:07:25;8.15;;;2.70;;
35126;SDS011;21300;52.006;5.798;2023-07-13T03:09:57;7.47;;;2.13;;
35126;SDS011;21300;52.006;5.798;2023-07-13T03:12:23;6.28;;;2.40;;
35126;SDS011;21300;52.006;5.798;2023-07-13T03:14:50;6.45;;;2.30;;
35126;SDS011;21300;52.006;5.798;2023-07-13T03:17:16;9.48;;;2.15;;
35126;SDS011;21300;52.006;5.798;2023-07-13T03:19:41;8.95;;;3.08;;
35126;SDS011;21300;52.006;5.798;2023-07-13T03:22:08;10.02;;;2.60;;
35126;SDS011;21300;52.006;5.798;2023-07-13T03:24:34;10.18;;;2.53;;
35126;SDS011;21300;52.006;5.798;2023-07-13T03:27:01;7.78;;;2.70;;
35126;SDS011;21300;52.006;5.798;2023-07-13T03:29:28;9.55;;;2.80;;
35126;SDS011;21300;52.006;5.798;2023-07-13T03:31:54;7.55;;;2.72;;
35126;SDS011;21300;52.006;5.798;2023-07-13T03:34:19;6.93;;;2.30;;
35126;SDS011;21300;52.006;5.798;2023-07-13T03:36:45;7.30;;;2.47;;
35126;SDS011;21300;52.006;5.798;2023-07-13T03:39:10;10.52;;;3.40;;
35126;SDS011;21300;52.006;5.798;2023-07-13T03:41:36;12.15;;;3.42;;
35126;SDS011;21300;52.006;5.798;2023-07-13T03:44:02;9.38;;;2.70;;
35126;SDS011;21300;52.006;5.798;2023-07-13T03:46:29;8.07;;;2.78;;
35126;SDS011;21300;52.006;5.798;2023-07-13T03:48:55;10.43;;;3.15;;
35126;SDS011;21300;52.006;5.798;2023-07-13T03:51:20;6.20;;;2.78;;
35126;SDS011;21300;52.006;5.798;2023-07-13T03:53:47;13.52;;;3.08;;
35126;SDS011;21300;52.006;5.798;2023-07-13T03:56:13;8.23;;;3.05;;
35126;SDS011;21300;52.006;5.798;2023-07-13T03:58:41;11.05;;;3.35;;
35126;SDS011;21300;52.006;5.798;2023-07-13T04:01:26;7.70;;;3.22;;
35126;SDS011;21300;52.006;5.798;2023-07-13T04:03:52;9.18;;;3.53;;
35126;SDS011;21300;52.006;5.798;2023-07-13T04:06:20;8.93;;;3.10;;
35126;SDS011;21300;52.006;5.798;2023-07-13T04:08:49;8.73;;;3.42;;
35126;SDS011;21300;52.006;5.798;2023-07-13T04:11:20;12.77;;;2.90;;
35126;SDS011;21300;52.006;5.798;2023-07-13T04:13:47;7.72;;;3.50;;
35126;SDS011;21300;52.006;5.798;2023-07-13T04:16:13;10.27;;;3.40;;
35126;SDS011;21300;52.006;5.798;2023-07-13T04:18:40;11.10;;;3.60;;
35126;SDS011;21300;52.006;5.798;2023-07-13T04:21:06;14.15;;;3.17;;
35126;SDS011;21300;52.006;5.798;2023-07-13T04:23:32;10.38;;;3.33;;
35126;SDS011;21300;52.006;5.798;2023-07-13T04:25:58;14.07;;;3.42;;
35126;SDS011;21300;52.006;5.798;2023-07-13T04:28:24;11.80;;;3.97;;
35126;SDS011;21300;52.006;5.798;2023-07-13T04:30:51;12.68;;;4.25;;
35126;SDS011;21300;52.006;5.798;2023-07-13T04:33:17;9.65;;;3.75;;
35126;SDS011;21300;52.006;5.798;2023-07-13T04:35:48;11.30;;;3.60;;
35126;SDS011;21300;52.006;5.798;2023-07-13T04:38:25;10.60;;;3.70;;
35126;SDS011;21300;52.006;5.798;2023-07-13T04:40:54;11.25;;;3.65;;
35126;SDS011;21300;52.006;5.798;2023-07-13T04:43:21;9.80;;;3.45;;
35126;SDS011;21300;52.006;5.798;2023-07-13T04:45:46;19.35;;;4.65;;
35126;SDS011;21300;52.006;5.798;2023-07-13T04:48:12;14.38;;;4.13;;
35126;SDS011;21300;52.006;5.798;2023-07-13T04:50:38;12.32;;;3.72;;
35126;SDS011;21300;52.006;5.798;2023-07-13T04:53:04;16.80;;;4.45;;
35126;SDS011;21300;52.006;5.798;2023-07-13T04:55:30;14.18;;;4.75;;
35126;SDS011;21300;52.006;5.798;2023-07-13T04:57:56;16.48;;;4.55;;
35126;SDS011;21300;52.006;5.798;2023-07-13T05:00:23;11.32;;;4.30;;
35126;SDS011;21300;52.006;5.798;2023-07-13T05:02:49;9.88;;;4.00;;
35126;SDS011;21300;52.006;5.798;2023-07-13T05:05:16;13.07;;;4.40;;
35126;SDS011;21300;52.006;5.798;2023-07-13T05:07:41;8.45;;;4.10;;
35126;SDS011;21300;52.006;5.798;2023-07-13T05:10:07;11.38;;;4.35;;
35126;SDS011;21300;52.006;5.798;2023-07-13T05:12:33;11.68;;;4.85;;
35126;SDS011;21300;52.006;5.798;2023-07-13T05:14:59;10.98;;;4.20;;
35126;SDS011;21300;52.006;5.798;2023-07-13T05:17:26;13.57;;;4.45;;
35126;SDS011;21300;52.006;5.798;2023-07-13T05:19:51;14.43;;;4.30;;
35126;SDS011;21300;52.006;5.798;2023-07-13T05:22:17;15.90;;;4.85;;
35126;SDS011;21300;52.006;5.798;2023-07-13T05:24:43;12.05;;;5.05;;
35126;SDS011;21300;52.006;5.798;2023-07-13T05:27:08;16.02;;;5.22;;
35126;SDS011;21300;52.006;5.798;2023-07-13T05:29:34;16.98;;;5.57;;
35126;SDS011;21300;52.006;5.798;2023-07-13T05:31:59;16.17;;;4.90;;
35126;SDS011;21300;52.006;5.798;2023-07-13T05:34:25;13.82;;;5.40;;
35126;SDS011;21300;52.006;5.798;2023-07-13T05:36:51;14.13;;;5.63;;
35126;SDS011;21300;52.006;5.798;2023-07-13T05:39:18;14.23;;;6.20;;
35126;SDS011;21300;52.006;5.798;2023-07-13T05:41:44;13.13;;;5.50;;
35126;SDS011;21300;52.006;5.798;2023-07-13T05:44:09;17.85;;;6.18;;
35126;SDS011;21300;52.006;5.798;2023-07-13T05:46:35;14.00;;;5.53;;
35126;SDS011;21300;52.006;5.798;2023-07-13T05:49:01;20.45;;;6.30;;
35126;SDS011;21300;52.006;5.798;2023-07-13T05:51:26;13.27;;;6.00;;
35126;SDS011;21300;52.006;5.798;2023-07-13T05:53:52;15.40;;;6.82;;
35126;SDS011;21300;52.006;5.798;2023-07-13T05:56:18;16.08;;;7.57;;
35126;SDS011;21300;52.006;5.798;2023-07-13T05:58:44;19.05;;;8.15;;
35126;SDS011;21300;52.006;5.798;2023-07-13T06:01:10;23.42;;;8.13;;
35126;SDS011;21300;52.006;5.798;2023-07-13T06:03:37;17.08;;;8.70;;
35126;SDS011;21300;52.006;5.798;2023-07-13T06:06:07;15.57;;;7.15;;
35126;SDS011;21300;52.006;5.798;2023-07-13T06:08:34;18.35;;;7.82;;
35126;SDS011;21300;52.006;5.798;2023-07-13T06:11:03;24.42;;;8.98;;
35126;SDS011;21300;52.006;5.798;2023-07-13T06:13:34;25.73;;;9.93;;
35126;SDS011;21300;52.006;5.798;2023-07-13T06:16:00;24.05;;;10.10;;
35126;SDS011;21300;52.006;5.798;2023-07-13T06:18:29;19.73;;;10.73;;
35126;SDS011;21300;52.006;5.798;2023-07-13T06:20:56;27.15;;;11.48;;
35126;SDS011;21300;52.006;5.798;2023-07-13T06:23:22;27.10;;;11.25;;
35126;SDS011;21300;52.006;5.798;2023-07-13T06:25:48;27.10;;;11.18;;
35126;SDS011;21300;52.006;5.798;2023-07-13T06:28:14;19.35;;;11.25;;
35126;SDS011;21300;52.006;5.798;2023-07-13T06:30:40;24.65;;;11.25;;
35126;SDS011;21300;52.006;5.798;2023-07-13T06:33:05;26.23;;;11.95;;
35126;SDS011;21300;52.006;5.798;2023-07-13T06:35:31;19.70;;;11.38;;
35126;SDS011;21300;52.006;5.798;2023-07-13T06:37:57;22.10;;;10.68;;
35126;SDS011;21300;52.006;5.798;2023-07-13T06:40:23;23.98;;;11.75;;
35126;SDS011;21300;52.006;5.798;2023-07-13T06:42:48;29.65;;;13.07;;
35126;SDS011;21300;52.006;5.798;2023-07-13T06:45:14;25.75;;;13.05;;
35126;SDS011;21300;52.006;5.798;2023-07-13T06:47:39;28.10;;;13.20;;
35126;SDS011;21300;52.006;5.798;2023-07-13T06:50:06;20.92;;;12.10;;
35126;SDS011;21300;52.006;5.798;2023-07-13T06:52:32;23.73;;;11.43;;
35126;SDS011;21300;52.006;5.798;2023-07-13T06:54:58;22.45;;;12.32;;
35126;SDS011;21300;52.006;5.798;2023-07-13T06:57:24;25.75;;;12.40;;
35126;SDS011;21300;52.006;5.798;2023-07-13T06:59:49;27.17;;;13.57;;
35126;SDS011;21300;52.006;5.798;2023-07-13T07:02:15;24.55;;;12.32;;
35126;SDS011;21300;52.006;5.798;2023-07-13T07:04:41;23.60;;;13.07;;
35126;SDS011;21300;52.006;5.798;2023-07-13T07:07:06;24.25;;;13.82;;
35126;SDS011;21300;52.006;5.798;2023-07-13T07:09:32;25.42;;;14.73;;
35126;SDS011;21300;52.006;5.798;2023-07-13T07:11:57;24.05;;;13.60;;
35126;SDS011;21300;52.006;5.798;2023-07-13T07:14:23;26.92;;;12.77;;
35126;SDS011;21300;52.006;5.798;2023-07-13T07:16:49;24.95;;;13.60;;
35126;SDS011;21300;52.006;5.798;2023-07-13T07:19:15;25.45;;;12.98;;
35126;SDS011;21300;52.006;5.798;2023-07-13T07:21:41;28.00;;;14.32;;
35126;SDS011;21300;52.006;5.798;2023-07-13T07:24:06;25.08;;;13.50;;
35126;SDS011;21300;52.006;5.798;2023-07-13T07:26:32;25.63;;;13.38;;
35126;SDS011;21300;52.006;5.798;2023-07-13T07:28:58;25.00;;;14.13;;
35126;SDS011;21300;52.006;5.798;2023-07-13T07:31:24;21.98;;;13.30;;
35126;SDS011;21300;52.006;5.798;2023-07-13T07:33:49;26.25;;;13.80;;
35126;SDS011;21300;52.006;5.798;2023-07-13T07:36:15;26.13;;;13.45;;
35126;SDS011;21300;52.006;5.798;2023-07-13T07:38:41;25.38;;;14.13;;
35126;SDS011;21300;52.006;5.798;2023-07-13T07:41:08;23.98;;;13.95;;
35126;SDS011;21300;52.006;5.798;2023-07-13T07:43:34;30.38;;;14.02;;
35126;SDS011;21300;52.006;5.798;2023-07-13T07:45:59;23.75;;;13.15;;
35126;SDS011;21300;52.006;5.798;2023-07-13T07:48:25;26.98;;;13.23;;
35126;SDS011;21300;52.006;5.798;2023-07-13T07:50:51;22.73;;;12.48;;
35126;SDS011;21300;52.006;5.798;2023-07-13T07:53:16;29.48;;;12.60;;
35126;SDS011;21300;52.006;5.798;2023-07-13T07:55:42;25.77;;;13.43;;
35126;SDS011;21300;52.006;5.798;2023-07-13T07:58:08;22.30;;;12.52;;
35126;SDS011;21300;52.006;5.798;2023-07-13T08:00:33;25.83;;;13.05;;
35126;SDS011;21300;52.006;5.798;2023-07-13T08:03:00;23.15;;;13.18;;
35126;SDS011;21300;52.006;5.798;2023-07-13T08:05:26;21.05;;;13.13;;
35126;SDS011;21300;52.006;5.798;2023-07-13T08:07:52;27.73;;;13.55;;
35126;SDS011;21300;52.006;5.798;2023-07-13T08:10:18;30.42;;;13.43;;
35126;SDS011;21300;52.006;5.798;2023-07-13T08:12:43;24.23;;;12.20;;
35126;SDS011;21300;52.006;5.798;2023-07-13T08:15:11;24.08;;;12.50;;
35126;SDS011;21300;52.006;5.798;2023-07-13T08:17:39;23.98;;;14.10;;
35126;SDS011;21300;52.006;5.798;2023-07-13T08:20:04;25.88;;;14.23;;
35126;SDS011;21300;52.006;5.798;2023-07-13T08:22:31;28.30;;;13.43;;
35126;SDS011;21300;52.006;5.798;2023-07-13T08:24:56;22.88;;;12.60;;
35126;SDS011;21300;52.006;5.798;2023-07-13T08:27:23;22.52;;;13.15;;
35126;SDS011;21300;52.006;5.798;2023-07-13T08:29:49;19.45;;;12.50;;
35126;SDS011;21300;52.006;5.798;2023-07-13T08:32:16;22.10;;;12.00;;
35126;SDS011;21300;52.006;5.798;2023-07-13T08:34:43;22.20;;;11.45;;
35126;SDS011;21300;52.006;5.798;2023-07-13T08:37:09;19.80;;;11.77;;
35126;SDS011;21300;52.006;5.798;2023-07-13T08:39:35;23.33;;;13.05;;
35126;SDS011;21300;52.006;5.798;2023-07-13T08:42:26;23.20;;;11.30;;
35126;SDS011;21300;52.006;5.798;2023-07-13T08:48:02;24.33;;;12.75;;
35126;SDS011;21300;52.006;5.798;2023-07-13T08:50:35;21.73;;;11.57;;
35126;SDS011;21300;52.006;5.798;2023-07-13T08:53:11;19.23;;;11.35;;
35126;SDS011;21300;52.006;5.798;2023-07-13T08:55:38;20.90;;;11.35;;
35126;SDS011;21300;52.006;5.798;2023-07-13T08:58:05;20.17;;;9.88;;
35126;SDS011;21300;52.006;5.798;2023-07-13T09:00:44;17.80;;;9.57;;
35126;SDS011;21300;52.006;5.798;2023-07-13T09:03:23;14.82;;;8.23;;
35126;SDS011;21300;52.006;5.798;2023-07-13T09:05:54;14.00;;;7.72;;
35126;SDS011;21300;52.006;5.798;2023-07-13T09:08:30;14.70;;;8.63;;
35126;SDS011;21300;52.006;5.798;2023-07-13T09:11:21;15.90;;;7.55;;
35126;SDS011;21300;52.006;5.798;2023-07-13T09:13:56;14.48;;;6.07;;
35126;SDS011;21300;52.006;5.798;2023-07-13T09:16:50;18.90;;;6.80;;
35126;SDS011;21300;52.006;5.798;2023-07-13T09:19:20;12.48;;;6.60;;
35126;SDS011;21300;52.006;5.798;2023-07-13T09:21:49;10.98;;;6.28;;
35126;SDS011;21300;52.006;5.798;2023-07-13T09:27:19;8.75;;;4.32;;
35126;SDS011;21300;52.006;5.798;2023-07-13T09:29:49;16.95;;;5.05;;
35126;SDS011;21300;52.006;5.798;2023-07-13T09:34:50;9.82;;;3.80;;
35126;SDS011;21300;52.006;5.798;2023-07-13T09:37:16;8.23;;;4.00;;
35126;SDS011;21300;52.006;5.798;2023-07-13T09:39:43;10.60;;;3.88;;
35126;SDS011;21300;52.006;5.798;2023-07-13T09:47:19;10.75;;;3.72;;
35126;SDS011;21300;52.006;5.798;2023-07-13T09:49:48;9.63;;;3.72;;
35126;SDS011;21300;52.006;5.798;2023-07-13T09:54:49;9.05;;;4.18;;
35126;SDS011;21300;52.006;5.798;2023-07-13T09:57:19;12.98;;;5.15;;
35126;SDS011;21300;52.006;5.798;2023-07-13T09:59:49;10.07;;;4.47;;
35126;SDS011;21300;52.006;5.798;2023-07-13T10:02:30;8.45;;;4.32;;
35126;SDS011;21300;52.006;5.798;2023-07-13T10:04:59;11.68;;;4.30;;
35126;SDS011;21300;52.006;5.798;2023-07-13T10:07:28;8.52;;;3.95;;
35126;SDS011;21300;52.006;5.798;2023-07-13T10:09:56;8.75;;;3.47;;
35126;SDS011;21300;52.006;5.798;2023-07-13T10:12:26;8.75;;;3.63;;
35126;SDS011;21300;52.006;5.798;2023-07-13T10:14:55;11.55;;;3.78;;
35126;SDS011;21300;52.006;5.798;2023-07-13T10:17:26;11.38;;;4.05;;
35126;SDS011;21300;52.006;5.798;2023-07-13T10:19:56;11.75;;;4.28;;
35126;SDS011;21300;52.006;5.798;2023-07-13T10:22:36;11.85;;;3.65;;
35126;SDS011;21300;52.006;5.798;2023-07-13T10:25:23;8.50;;;4.00;;
35126;SDS011;21300;52.006;5.798;2023-07-13T10:27:52;9.90;;;4.13;;
35126;SDS011;21300;52.006;5.798;2023-07-13T10:30:22;6.68;;;2.92;;
35126;SDS011;21300;52.006;5.798;2023-07-13T10:32:53;8.15;;;3.20;;
35126;SDS011;21300;52.006;5.798;2023-07-13T10:35:20;11.25;;;4.22;;
35126;SDS011;21300;52.006;5.798;2023-07-13T10:37:52;14.48;;;4.28;;
35126;SDS011;21300;52.006;5.798;2023-07-13T10:43:44;20.40;;;4.57;;
35126;SDS011;21300;52.006;5.798;2023-07-13T10:46:16;11.65;;;3.90;;
35126;SDS011;21300;52.006;5.798;2023-07-13T10:48:45;6.57;;;3.30;;
35126;SDS011;21300;52.006;5.798;2023-07-13T10:51:14;7.60;;;3.28;;
35126;SDS011;21300;52.006;5.798;2023-07-13T10:53:42;9.80;;;3.28;;
35126;SDS011;21300;52.006;5.798;2023-07-13T10:56:28;11.05;;;3.67;;
35126;SDS011;21300;52.006;5.798;2023-07-13T10:59:28;7.63;;;2.85;;
35126;SDS011;21300;52.006;5.798;2023-07-13T11:01:58;6.75;;;2.70;;
35126;SDS011;21300;52.006;5.798;2023-07-13T11:04:29;7.40;;;2.85;;
35126;SDS011;21300;52.006;5.798;2023-07-13T11:07:10;7.85;;;2.20;;
35126;SDS011;21300;52.006;5.798;2023-07-13T11:09:43;8.95;;;2.42;;
35126;SDS011;21300;52.006;5.798;2023-07-13T11:25:29;7.30;;;3.30;;
35126;SDS011;21300;52.006;5.798;2023-07-13T11:30:49;5.93;;;2.40;;
35126;SDS011;21300;52.006;5.798;2023-07-13T11:38:41;6.53;;;2.55;;
35126;SDS011;21300;52.006;5.798;2023-07-13T11:41:30;7.20;;;2.83;;
35126;SDS011;21300;52.006;5.798;2023-07-13T11:44:34;5.38;;;2.47;;
35126;SDS011;21300;52.006;5.798;2023-07-13T11:46:55;4.43;;;2.42;;
35126;SDS011;21300;52.006;5.798;2023-07-13T11:49:26;7.45;;;2.97;;
35126;SDS011;21300;52.006;5.798;2023-07-13T11:51:54;5.38;;;2.53;;
35126;SDS011;21300;52.006;5.798;2023-07-13T11:57:01;4.88;;;2.25;;
35126;SDS011;21300;52.006;5.798;2023-07-13T11:59:45;6.78;;;2.40;;
35126;SDS011;21300;52.006;5.798;2023-07-13T12:02:16;4.53;;;2.28;;
35126;SDS011;21300;52.006;5.798;2023-07-13T12:04:53;4.53;;;2.30;;
35126;SDS011;21300;52.006;5.798;2023-07-13T12:07:19;5.32;;;2.67;;
35126;SDS011;21300;52.006;5.798;2023-07-13T12:09:45;5.45;;;2.38;;
35126;SDS011;21300;52.006;5.798;2023-07-13T12:12:11;5.82;;;3.03;;
35126;SDS011;21300;52.006;5.798;2023-07-13T12:14:38;8.98;;;2.70;;
35126;SDS011;21300;52.006;5.798;2023-07-13T12:17:20;7.03;;;2.45;;
35126;SDS011;21300;52.006;5.798;2023-07-13T12:19:48;7.30;;;2.10;;
35126;SDS011;21300;52.006;5.798;2023-07-13T12:22:16;3.83;;;1.88;;
35126;SDS011;21300;52.006;5.798;2023-07-13T12:24:43;6.70;;;2.15;;
35126;SDS011;21300;52.006;5.798;2023-07-13T12:27:17;3.65;;;2.17;;
35126;SDS011;21300;52.006;5.798;2023-07-13T12:29:51;6.13;;;2.47;;
35126;SDS011;21300;52.006;5.798;2023-07-13T12:32:23;7.88;;;2.90;;
35126;SDS011;21300;52.006;5.798;2023-07-13T12:34:54;7.05;;;2.30;;
35126;SDS011;21300;52.006;5.798;2023-07-13T12:37:21;4.05;;;2.20;;
35126;SDS011;21300;52.006;5.798;2023-07-13T12:39:48;7.85;;;2.65;;
35126;SDS011;21300;52.006;5.798;2023-07-13T12:42:19;6.90;;;2.22;;
35126;SDS011;21300;52.006;5.798;2023-07-13T12:44:59;4.68;;;2.20;;
35126;SDS011;21300;52.006;5.798;2023-07-13T12:47:28;7.85;;;2.55;;
35126;SDS011;21300;52.006;5.798;2023-07-13T12:49:56;4.70;;;1.95;;
35126;SDS011;21300;52.006;5.798;2023-07-13T12:52:28;7.47;;;2.10;;
35126;SDS011;21300;52.006;5.798;2023-07-13T12:55:04;5.95;;;1.98;;
35126;SDS011;21300;52.006;5.798;2023-07-13T12:57:45;6.68;;;2.42;;
35126;SDS011;21300;52.006;5.798;2023-07-13T13:00:28;4.22;;;2.30;;
35126;SDS011;21300;52.006;5.798;2023-07-13T13:02:58;4.78;;;2.13;;
35126;SDS011;21300;52.006;5.798;2023-07-13T13:05:30;6.50;;;2.80;;
35126;SDS011;21300;52.006;5.798;2023-07-13T13:07:57;7.00;;;2.42;;
35126;SDS011;21300;52.006;5.798;2023-07-13T13:10:22;6.00;;;2.35;;
35126;SDS011;21300;52.006;5.798;2023-07-13T13:12:48;4.93;;;2.30;;
35126;SDS011;21300;52.006;5.798;2023-07-13T13:15:15;5.10;;;2.53;;
35126;SDS011;21300;52.006;5.798;2023-07-13T13:17:41;7.57;;;2.95;;
35126;SDS011;21300;52.006;5.798;2023-07-13T13:20:14;6.65;;;3.08;;
35126;SDS011;21300;52.006;5.798;2023-07-13T13:22:41;12.90;;;3.50;;
35126;SDS011;21300;52.006;5.798;2023-07-13T13:25:11;6.28;;;3.17;;
35126;SDS011;21300;52.006;5.798;2023-07-13T13:27:37;8.60;;;3.15;;
35126;SDS011;21300;52.006;5.798;2023-07-13T13:30:08;7.43;;;3.15;;
35126;SDS011;21300;52.006;5.798;2023-07-13T13:35:19;4.40;;;2.05;;
35126;SDS011;21300;52.006;5.798;2023-07-13T13:37:46;4.80;;;1.65;;
35126;SDS011;21300;52.006;5.798;2023-07-13T13:40:19;5.43;;;1.90;;
35126;SDS011;21300;52.006;5.798;2023-07-13T13:42:50;3.40;;;1.55;;
35126;SDS011;21300;52.006;5.798;2023-07-13T13:45:17;5.45;;;2.10;;
35126;SDS011;21300;52.006;5.798;2023-07-13T13:47:43;5.32;;;2.33;;
35126;SDS011;21300;52.006;5.798;2023-07-13T13:50:13;5.63;;;2.50;;
35126;SDS011;21300;52.006;5.798;2023-07-13T13:52:41;5.50;;;2.20;;
35126;SDS011;21300;52.006;5.798;2023-07-13T13:55:12;4.63;;;2.10;;
35126;SDS011;21300;52.006;5.798;2023-07-13T13:57:38;4.07;;;2.10;;
35126;SDS011;21300;52.006;5.798;2023-07-13T14:00:04;3.80;;;2.10;;
35126;SDS011;21300;52.006;5.798;2023-07-13T14:02:30;4.20;;;2.40;;
35126;SDS011;21300;52.006;5.798;2023-07-13T14:04:58;4.20;;;2.35;;
35126;SDS011;21300;52.006;5.798;2023-07-13T14:07:26;5.78;;;2.30;;
35126;SDS011;21300;52.006;5.798;2023-07-13T14:09:56;5.45;;;2.22;;
35126;SDS011;21300;52.006;5.798;2023-07-13T14:12:23;5.30;;;2.10;;
35126;SDS011;21300;52.006;5.798;2023-07-13T14:14:53;4.90;;;2.60;;
35126;SDS011;21300;52.006;5.798;2023-07-13T14:17:20;4.10;;;2.20;;
35126;SDS011;21300;52.006;5.798;2023-07-13T14:19:49;6.07;;;2.83;;
35126;SDS011;21300;52.006;5.798;2023-07-13T14:22:19;5.45;;;2.03;;
35126;SDS011;21300;52.006;5.798;2023-07-13T14:24:45;3.83;;;2.30;;
35126;SDS011;21300;52.006;5.798;2023-07-13T14:27:11;3.63;;;2.00;;
35126;SDS011;21300;52.006;5.798;2023-07-13T14:29:37;5.93;;;2.42;;
35126;SDS011;21300;52.006;5.798;2023-07-13T14:32:04;4.80;;;2.20;;
35126;SDS011;21300;52.006;5.798;2023-07-13T14:34:31;3.78;;;2.10;;
35126;SDS011;21300;52.006;5.798;2023-07-13T14:36:56;4.55;;;2.10;;
35126;SDS011;21300;52.006;5.798;2023-07-13T14:39:23;3.95;;;1.95;;
35126;SDS011;21300;52.006;5.798;2023-07-13T14:41:50;4.55;;;2.30;;
35126;SDS011;21300;52.006;5.798;2023-07-13T14:44:17;3.15;;;2.00;;
35126;SDS011;21300;52.006;5.798;2023-07-13T14:46:46;4.82;;;2.40;;
35126;SDS011;21300;52.006;5.798;2023-07-13T14:51:57;4.45;;;1.75;;
35126;SDS011;21300;52.006;5.798;2023-07-13T14:54:26;3.88;;;2.00;;
35126;SDS011;21300;52.006;5.798;2023-07-13T14:56:51;7.55;;;2.35;;
35126;SDS011;21300;52.006;5.798;2023-07-13T14:59:17;3.60;;;2.13;;
35126;SDS011;21300;52.006;5.798;2023-07-13T15:01:46;4.28;;;2.00;;
35126;SDS011;21300;52.006;5.798;2023-07-13T15:04:13;7.25;;;2.40;;
35126;SDS011;21300;52.006;5.798;2023-07-13T15:09:25;5.05;;;2.33;;
35126;SDS011;21300;52.006;5.798;2023-07-13T15:11:52;6.20;;;2.13;;
35126;SDS011;21300;52.006;5.798;2023-07-13T15:14:19;3.83;;;2.00;;
35126;SDS011;21300;52.006;5.798;2023-07-13T15:16:46;4.88;;;2.03;;
35126;SDS011;21300;52.006;5.798;2023-07-13T15:19:14;9.02;;;2.70;;
35126;SDS011;21300;52.006;5.798;2023-07-13T15:21:41;5.95;;;1.92;;
35126;SDS011;21300;52.006;5.798;2023-07-13T15:24:08;3.50;;;1.92;;
35126;SDS011;21300;52.006;5.798;2023-07-13T15:26:35;3.28;;;1.67;;
35126;SDS011;21300;52.006;5.798;2023-07-13T15:29:01;5.20;;;2.10;;
35126;SDS011;21300;52.006;5.798;2023-07-13T15:31:27;3.33;;;1.80;;
35126;SDS011;21300;52.006;5.798;2023-07-13T15:33:54;5.97;;;2.20;;
35126;SDS011;21300;52.006;5.798;2023-07-13T15:36:22;3.30;;;1.83;;
35126;SDS011;21300;52.006;5.798;2023-07-13T15:38:54;4.40;;;2.28;;